createdAt,value
2019-01-23T00:00:48.557Z,69.00
2019-01-23T00:03:15.880Z,66.62
2019-01-23T00:05:43.187Z,59.13
2019-01-23T00:08:10.478Z,62.78
2019-01-23T00:10:37.791Z,61.42
2019-01-23T00:13:05.085Z,63.73
2019-01-23T00:15:32.414Z,67.82
2019-01-23T00:17:59.710Z,71.42
2019-01-23T00:20:27.001Z,62.88
2019-01-23T00:22:54.341Z,72.72
2019-01-23T00:25:21.626Z,61.60
2019-01-23T00:27:48.951Z,68.62
2019-01-23T00:30:16.247Z,60.10
2019-01-23T00:32:43.571Z,63.28
2019-01-23T00:35:10.873Z,69.00
2019-01-23T00:37:38.176Z,67.20
2019-01-23T00:40:07.125Z,68.02
2019-01-23T00:42:34.498Z,63.20
2019-01-23T00:45:01.823Z,66.47
2019-01-23T00:47:29.113Z,66.37
2019-01-23T00:49:56.423Z,70.83
2019-01-23T00:52:23.751Z,58.63
2019-01-23T00:54:51.043Z,62.83
2019-01-23T00:57:18.342Z,55.67
2019-01-23T00:59:45.675Z,62.75
2019-01-23T01:02:12.970Z,59.85
2019-01-23T01:04:40.274Z,61.68
2019-01-23T01:07:07.589Z,72.62
2019-01-23T01:09:34.886Z,57.30
2019-01-23T01:12:02.203Z,65.85
2019-01-23T01:14:29.497Z,60.05
2019-01-23T01:16:56.803Z,64.05
2019-01-23T01:19:24.121Z,68.62
2019-01-23T01:21:51.418Z,63.92
2019-01-23T01:24:18.703Z,60.95
2019-01-23T01:26:46.033Z,63.23
2019-01-23T01:29:13.332Z,62.75
2019-01-23T01:31:40.621Z,58.75
2019-01-23T01:34:07.946Z,60.95
2019-01-23T01:36:35.236Z,61.28
2019-01-23T01:39:02.555Z,61.13
2019-01-23T01:41:29.865Z,61.33
2019-01-23T01:43:57.161Z,55.70
2019-01-23T01:46:24.473Z,62.53
2019-01-23T01:48:51.775Z,58.08
2019-01-23T01:51:19.056Z,56.60
2019-01-23T01:53:46.381Z,52.30
2019-01-23T01:56:13.664Z,59.85
2019-01-23T01:58:40.961Z,55.73
2019-01-23T02:01:08.278Z,61.73
2019-01-23T02:03:35.586Z,55.75
2019-01-23T02:06:02.905Z,59.18
2019-01-23T02:08:30.203Z,54.98
2019-01-23T02:10:57.508Z,59.18
2019-01-23T02:13:24.831Z,61.60
2019-01-23T02:15:52.122Z,70.15
2019-01-23T02:18:19.485Z,56.88
2019-01-23T02:20:46.831Z,62.88
2019-01-23T02:23:14.131Z,56.20
2019-01-23T02:25:41.431Z,57.30
2019-01-23T02:28:08.935Z,59.15
2019-01-23T02:30:36.230Z,59.58
2019-01-23T02:33:03.527Z,59.70
2019-01-23T02:35:30.852Z,56.88
2019-01-23T02:37:58.195Z,51.80
2019-01-23T02:40:25.496Z,52.95
2019-01-23T02:42:52.825Z,51.08
2019-01-23T02:45:20.136Z,59.73
2019-01-23T02:47:47.514Z,57.43
2019-01-23T02:50:15.077Z,53.00
2019-01-23T02:52:42.401Z,55.23
2019-01-23T02:55:10.270Z,56.08
2019-01-23T02:57:37.600Z,54.38
2019-01-23T03:00:06.598Z,51.73
2019-01-23T03:02:33.922Z,52.43
2019-01-23T03:05:01.217Z,50.83
2019-01-23T03:07:28.506Z,59.75
2019-01-23T03:09:55.830Z,53.50
2019-01-23T03:12:23.124Z,53.13
2019-01-23T03:14:50.421Z,52.85
2019-01-23T03:17:17.741Z,57.25
2019-01-23T03:19:45.306Z,55.80
2019-01-23T03:22:12.638Z,54.85
2019-01-23T03:24:39.939Z,52.83
2019-01-23T03:27:07.248Z,54.13
2019-01-23T03:29:34.563Z,52.60
2019-01-23T03:32:01.864Z,50.67
2019-01-23T03:34:29.199Z,52.65
2019-01-23T03:36:56.484Z,55.52
2019-01-23T03:39:23.797Z,50.63
2019-01-23T03:41:51.101Z,48.78
2019-01-23T03:44:18.407Z,46.92
2019-01-23T03:46:45.726Z,51.68
2019-01-23T03:49:13.049Z,49.73
2019-01-23T03:51:40.365Z,54.48
2019-01-23T03:54:07.672Z,48.55
2019-01-23T03:56:34.992Z,47.98
2019-01-23T03:59:02.284Z,49.63
2019-01-23T04:01:29.607Z,53.78
2019-01-23T04:03:56.907Z,44.75
2019-01-23T04:06:24.235Z,52.65
2019-01-23T04:08:51.536Z,49.42
2019-01-23T04:11:18.830Z,45.52
2019-01-23T04:13:46.148Z,48.20
2019-01-23T04:16:13.447Z,47.80
2019-01-23T04:18:40.803Z,48.73
2019-01-23T04:21:08.065Z,44.25
2019-01-23T04:23:35.454Z,52.93
2019-01-23T04:26:02.811Z,54.80
2019-01-23T04:28:30.113Z,47.17
2019-01-23T04:30:57.433Z,42.27
2019-01-23T04:33:24.739Z,43.95
2019-01-23T04:35:52.021Z,47.55
2019-01-23T04:38:19.359Z,46.10
2019-01-23T04:40:46.669Z,55.48
2019-01-23T04:43:13.964Z,49.48
2019-01-23T04:45:41.370Z,39.95
2019-01-23T04:48:08.675Z,45.80
2019-01-23T04:50:37.638Z,51.65
2019-01-23T04:53:06.582Z,42.95
2019-01-23T04:55:34.920Z,48.35
2019-01-23T04:58:02.234Z,45.95
2019-01-23T05:00:31.174Z,50.00
2019-01-23T05:02:58.531Z,48.75
2019-01-23T05:05:25.797Z,47.78
2019-01-23T05:07:53.099Z,41.98
2019-01-23T05:10:20.418Z,43.40
2019-01-23T05:12:47.695Z,47.95
2019-01-23T05:15:14.980Z,50.45
2019-01-23T05:17:42.261Z,43.20
2019-01-23T05:20:11.189Z,42.55
2019-01-23T05:22:38.512Z,44.60
2019-01-23T05:25:06.075Z,41.68
2019-01-23T05:27:33.392Z,43.80
2019-01-23T05:30:00.711Z,45.08
2019-01-23T05:32:28.035Z,43.10
2019-01-23T05:34:55.360Z,42.50
2019-01-23T05:37:22.649Z,42.95
2019-01-23T05:39:49.955Z,50.00
2019-01-23T05:42:17.319Z,38.90
2019-01-23T05:44:44.629Z,52.03
2019-01-23T05:47:11.934Z,55.28
2019-01-23T05:49:39.260Z,48.02
2019-01-23T05:52:06.574Z,48.25
2019-01-23T05:54:33.905Z,45.75
2019-01-23T05:57:01.203Z,42.23
2019-01-23T05:59:28.518Z,53.23
2019-01-23T06:01:55.889Z,42.83
2019-01-23T06:04:23.311Z,46.23
2019-01-23T06:06:50.624Z,46.80
2019-01-23T06:09:17.933Z,46.63
2019-01-23T06:11:45.335Z,46.40
2019-01-23T06:14:12.623Z,45.33
2019-01-23T06:16:39.959Z,49.95
2019-01-23T06:19:07.252Z,45.38
2019-01-23T06:21:34.550Z,46.42
2019-01-23T06:24:01.865Z,45.90
2019-01-23T06:26:29.157Z,44.08
2019-01-23T06:28:56.455Z,51.05
2019-01-23T06:31:23.769Z,49.65
2019-01-23T06:33:51.071Z,50.35
2019-01-23T06:36:18.393Z,47.70
2019-01-23T06:38:45.704Z,47.25
2019-01-23T06:41:13.005Z,51.58
2019-01-23T06:43:40.313Z,52.00
2019-01-23T06:46:07.636Z,53.68
2019-01-23T06:48:34.951Z,59.58
2019-01-23T06:51:02.250Z,52.48
2019-01-23T06:53:29.566Z,49.27
2019-01-23T06:55:56.872Z,53.90
2019-01-23T06:58:24.171Z,50.70
2019-01-23T07:00:51.505Z,51.50
2019-01-23T07:03:18.826Z,60.15
2019-01-23T07:05:46.116Z,51.45
2019-01-23T07:08:13.492Z,52.48
2019-01-23T07:10:40.806Z,54.25
2019-01-23T07:13:08.101Z,51.58
2019-01-23T07:15:35.410Z,55.52
2019-01-23T07:18:02.734Z,48.70
2019-01-23T07:20:30.035Z,51.35
2019-01-23T07:22:57.354Z,45.35
2019-01-23T07:25:24.660Z,53.05
2019-01-23T07:27:51.974Z,49.58
2019-01-23T07:30:24.323Z,51.77
2019-01-23T07:32:49.509Z,54.53
2019-01-23T07:35:16.806Z,52.17
2019-01-23T07:37:44.130Z,52.93
2019-01-23T07:40:11.445Z,54.35
2019-01-23T07:42:38.733Z,54.18
2019-01-23T07:45:07.755Z,54.08
2019-01-23T07:47:35.021Z,57.23
2019-01-23T07:50:02.322Z,50.48
2019-01-23T07:52:29.636Z,52.10
2019-01-23T07:54:56.948Z,54.73
2019-01-23T07:57:24.266Z,57.00
2019-01-23T07:59:51.559Z,49.58
2019-01-23T08:02:18.933Z,55.50
2019-01-23T08:04:46.274Z,52.27
2019-01-23T08:07:13.569Z,49.23
2019-01-23T08:09:40.866Z,52.50
2019-01-23T08:12:10.777Z,55.05
2019-01-23T08:14:37.126Z,60.58
2019-01-23T08:17:04.484Z,54.38
2019-01-23T08:19:31.778Z,63.05
2019-01-23T08:21:59.069Z,51.15
2019-01-23T08:24:26.395Z,55.43
2019-01-23T08:26:53.698Z,61.05
2019-01-23T08:29:20.998Z,55.90
2019-01-23T08:31:48.322Z,54.75
2019-01-23T08:34:15.615Z,52.35
2019-01-23T08:36:42.938Z,56.10
2019-01-23T08:39:10.234Z,55.73
2019-01-23T08:41:37.550Z,57.90
2019-01-23T08:44:04.875Z,62.90
2019-01-23T08:46:32.174Z,51.58
2019-01-23T08:48:59.488Z,58.40
2019-01-23T08:51:26.779Z,56.18
2019-01-23T08:53:54.111Z,58.98
2019-01-23T08:56:21.406Z,56.20
2019-01-23T08:58:48.792Z,56.40
2019-01-23T09:01:16.114Z,59.80
2019-01-23T09:03:43.425Z,56.40
2019-01-23T09:06:10.744Z,52.88
2019-01-23T09:08:38.058Z,52.83
2019-01-23T09:11:05.370Z,59.90
2019-01-23T09:13:32.660Z,54.00
2019-01-23T09:15:59.987Z,54.20
2019-01-23T09:18:27.295Z,70.40
2019-01-23T09:20:54.611Z,56.75
2019-01-23T09:23:21.905Z,58.75
2019-01-23T09:25:49.789Z,60.43
2019-01-23T09:28:18.024Z,57.83
2019-01-23T09:30:52.943Z,62.27
2019-01-23T09:33:20.704Z,58.33
2019-01-23T09:35:49.625Z,57.83
2019-01-23T09:38:21.593Z,61.10
2019-01-23T09:40:50.532Z,59.73
2019-01-23T09:43:25.551Z,67.05
2019-01-23T09:45:54.496Z,61.68
2019-01-23T09:48:29.390Z,54.75
2019-01-23T09:50:58.309Z,69.97
2019-01-23T09:53:27.254Z,59.40
2019-01-23T09:55:54.636Z,63.38
2019-01-23T09:58:21.914Z,61.53
2019-01-23T10:00:49.210Z,66.90
2019-01-23T10:03:22.785Z,63.78
2019-01-23T10:05:45.507Z,61.77
2019-01-23T10:08:12.831Z,68.92
2019-01-23T10:10:40.147Z,76.92
2019-01-23T10:13:07.465Z,64.35
2019-01-23T10:15:36.534Z,69.42
2019-01-23T10:18:03.851Z,63.52
2019-01-23T10:20:31.180Z,66.75
2019-01-23T10:22:58.491Z,62.65
2019-01-23T10:25:25.896Z,67.78
2019-01-23T10:27:53.224Z,76.20
2019-01-23T10:30:20.531Z,79.25
2019-01-23T10:32:47.829Z,82.80
2019-01-23T10:35:16.786Z,67.75
2019-01-23T10:37:44.086Z,75.55
2019-01-23T10:40:12.874Z,71.07
2019-01-23T10:42:40.177Z,74.07
2019-01-23T10:45:08.975Z,76.50
2019-01-23T10:47:36.283Z,73.33
2019-01-23T10:50:04.886Z,70.65
2019-01-23T10:52:32.244Z,67.60
2019-01-23T10:54:59.537Z,71.60
2019-01-23T10:57:26.839Z,75.78
2019-01-23T10:59:54.138Z,83.00
2019-01-23T11:02:21.438Z,77.55
2019-01-23T11:04:48.755Z,69.17
2019-01-23T11:07:16.053Z,82.50
2019-01-23T11:09:43.354Z,80.50
2019-01-23T11:12:10.666Z,75.70
2019-01-23T11:14:37.952Z,78.75
2019-01-23T11:17:05.263Z,74.00
2019-01-23T11:19:32.573Z,75.37
2019-01-23T11:21:59.910Z,71.53
2019-01-23T11:24:27.161Z,68.15
2019-01-23T11:26:54.487Z,73.15
2019-01-23T11:29:22.869Z,76.25
2019-01-23T11:31:50.191Z,86.10
2019-01-23T11:34:17.482Z,74.65
2019-01-23T11:36:44.805Z,90.87
2019-01-23T11:39:12.111Z,83.52
2019-01-23T11:41:39.424Z,73.42
2019-01-23T11:44:06.740Z,75.65
2019-01-23T11:46:34.041Z,76.28
2019-01-23T11:49:01.351Z,73.28
2019-01-23T11:51:29.061Z,77.85
2019-01-23T11:53:56.609Z,82.35
2019-01-23T11:56:24.001Z,70.57
2019-01-23T11:58:51.325Z,84.25
2019-01-23T12:01:18.628Z,80.80
2019-01-23T12:03:45.923Z,79.27
2019-01-23T12:06:13.494Z,81.17
2019-01-23T12:08:40.814Z,77.10
2019-01-23T12:11:08.381Z,76.82
2019-01-23T12:13:35.831Z,72.58
2019-01-23T12:16:03.129Z,68.92
2019-01-23T12:18:30.477Z,72.32
2019-01-23T12:20:57.793Z,80.65
2019-01-23T12:23:25.085Z,76.60
2019-01-23T12:25:52.410Z,72.47
2019-01-23T12:28:19.744Z,84.55
2019-01-23T12:30:47.028Z,85.28
2019-01-23T12:33:14.317Z,87.45
2019-01-23T12:35:41.642Z,75.55
2019-01-23T12:38:08.936Z,74.40
2019-01-23T12:40:36.256Z,77.50
2019-01-23T12:43:03.587Z,83.65
2019-01-23T12:45:30.890Z,77.17
2019-01-23T12:47:58.181Z,68.78
2019-01-23T12:50:26.677Z,84.03
2019-01-23T12:52:53.970Z,74.65
2019-01-23T12:55:21.279Z,78.83
2019-01-23T12:57:48.597Z,73.33
2019-01-23T13:00:17.593Z,71.70
2019-01-23T13:02:44.896Z,74.55
2019-01-23T13:05:12.688Z,81.22
2019-01-23T13:07:40.010Z,73.10
2019-01-23T13:10:08.955Z,79.77
2019-01-23T13:12:36.275Z,83.37
2019-01-23T13:15:05.267Z,73.15
2019-01-23T13:17:32.652Z,69.53
2019-01-23T13:19:59.943Z,70.67
2019-01-23T13:22:27.315Z,71.15
2019-01-23T13:24:54.587Z,74.60
2019-01-23T13:27:21.889Z,75.05
2019-01-23T13:29:49.213Z,78.37
2019-01-23T13:32:16.524Z,69.42
2019-01-23T13:34:43.809Z,73.57
2019-01-23T13:37:11.133Z,71.10
2019-01-23T13:39:38.431Z,79.00
2019-01-23T13:42:05.724Z,78.97
2019-01-23T13:44:33.046Z,69.67
2019-01-23T13:47:00.380Z,72.65
2019-01-23T13:49:27.672Z,73.17
2019-01-23T13:51:54.969Z,69.77
2019-01-23T13:54:22.285Z,73.52
2019-01-23T13:56:49.572Z,75.92
2019-01-23T13:59:16.938Z,69.05
2019-01-23T14:01:44.247Z,70.35
2019-01-23T14:04:11.566Z,72.30
2019-01-23T14:06:38.875Z,69.70
2019-01-23T14:09:06.552Z,67.65
2019-01-23T14:11:33.886Z,76.35
2019-01-23T14:14:01.188Z,75.40
2019-01-23T14:16:28.512Z,80.07
2019-01-23T14:18:55.834Z,77.20
2019-01-23T14:21:23.140Z,73.15
2019-01-23T14:23:50.448Z,79.00
2019-01-23T14:26:17.818Z,75.70
2019-01-23T14:28:45.103Z,80.42
2019-01-23T14:31:12.409Z,72.08
2019-01-23T14:33:39.802Z,61.02
2019-01-23T14:36:07.106Z,64.03
2019-01-23T14:38:34.427Z,67.05
2019-01-23T14:41:01.718Z,64.00
2019-01-23T14:43:29.028Z,59.30
2019-01-23T14:45:56.342Z,66.20
2019-01-23T14:48:23.673Z,65.20
2019-01-23T14:50:50.961Z,68.35
2019-01-23T14:53:18.275Z,65.87
2019-01-23T14:55:45.560Z,70.30
2019-01-23T14:58:12.892Z,67.92
2019-01-23T15:00:40.177Z,60.90
2019-01-23T15:03:07.492Z,61.55
2019-01-23T15:05:34.796Z,59.53
2019-01-23T15:08:02.091Z,69.50
2019-01-23T15:10:30.374Z,68.60
2019-01-23T15:12:57.701Z,73.25
2019-01-23T15:15:25.016Z,61.60
2019-01-23T15:17:52.703Z,62.40
2019-01-23T15:20:21.274Z,65.72
2019-01-23T15:22:48.574Z,69.95
2019-01-23T15:25:15.880Z,67.00
2019-01-23T15:27:43.193Z,64.55
2019-01-23T15:30:12.145Z,75.47
2019-01-23T15:32:39.438Z,78.28
2019-01-23T15:35:07.804Z,68.57
2019-01-23T15:37:35.122Z,75.50
2019-01-23T15:40:02.419Z,73.42
2019-01-23T15:42:29.727Z,65.25
2019-01-23T15:44:57.075Z,72.97
2019-01-23T15:47:24.365Z,70.90
2019-01-23T15:49:51.676Z,74.90
2019-01-23T15:52:19.339Z,60.52
2019-01-23T15:54:46.659Z,70.55
2019-01-23T15:57:13.959Z,68.12
2019-01-23T15:59:41.290Z,63.65
2019-01-23T16:02:08.611Z,83.52
2019-01-23T16:04:35.900Z,67.35
2019-01-23T16:07:03.229Z,71.20
2019-01-23T16:09:30.550Z,65.52
2019-01-23T16:11:57.983Z,64.37
2019-01-23T16:14:25.266Z,59.67
2019-01-23T16:16:52.648Z,60.40
2019-01-23T16:19:19.889Z,58.28
2019-01-23T16:21:47.219Z,66.85
2019-01-23T16:24:14.549Z,69.22
2019-01-23T16:26:41.847Z,64.77
2019-01-23T16:29:09.173Z,62.85
2019-01-23T16:31:36.472Z,69.50
2019-01-23T16:34:03.777Z,66.95
2019-01-23T16:36:31.109Z,71.35
2019-01-23T16:38:58.406Z,60.48
2019-01-23T16:41:25.694Z,55.95
2019-01-23T16:43:53.029Z,67.65
2019-01-23T16:46:20.327Z,56.58
2019-01-23T16:48:47.650Z,65.20
2019-01-23T16:51:14.945Z,63.98
2019-01-23T16:53:42.248Z,62.85
2019-01-23T16:56:09.604Z,65.10
2019-01-23T16:58:36.900Z,64.75
2019-01-23T17:01:04.205Z,65.70
2019-01-23T17:03:31.588Z,68.90
2019-01-23T17:05:58.886Z,63.83
2019-01-23T17:08:26.200Z,64.82
2019-01-23T17:10:53.490Z,60.40
2019-01-23T17:13:20.863Z,67.55
2019-01-23T17:15:48.175Z,68.92
2019-01-23T17:18:15.476Z,64.82
2019-01-23T17:20:43.464Z,61.75
2019-01-23T17:23:10.756Z,70.85
2019-01-23T17:25:38.059Z,71.22
2019-01-23T17:28:06.055Z,65.30
2019-01-23T17:30:33.361Z,71.25
2019-01-23T17:33:00.649Z,71.92
2019-01-23T17:35:27.969Z,69.90
2019-01-23T17:37:55.275Z,66.72
2019-01-23T17:40:23.349Z,70.42
2019-01-23T17:42:50.673Z,67.55
2019-01-23T17:45:22.717Z,63.28
2019-01-23T17:47:50.108Z,66.28
2019-01-23T17:50:18.384Z,65.55
2019-01-23T17:52:45.679Z,67.30
2019-01-23T17:55:14.722Z,65.00
2019-01-23T17:57:42.023Z,65.57
2019-01-23T18:00:10.983Z,64.40
2019-01-23T18:02:38.304Z,67.17
2019-01-23T18:05:05.874Z,67.15
2019-01-23T18:07:33.198Z,65.80
2019-01-23T18:10:00.521Z,65.85
2019-01-23T18:12:27.801Z,74.42
2019-01-23T18:14:55.127Z,74.25
2019-01-23T18:17:22.424Z,66.90
2019-01-23T18:19:49.705Z,75.90
2019-01-23T18:22:17.023Z,65.20
2019-01-23T18:24:44.336Z,74.97
2019-01-23T18:27:11.815Z,79.70
2019-01-23T18:29:39.274Z,77.62
2019-01-23T18:32:06.599Z,76.57
2019-01-23T18:34:38.445Z,68.50
2019-01-23T18:37:10.527Z,78.35
2019-01-23T18:39:42.143Z,76.97
2019-01-23T18:42:17.377Z,73.83
2019-01-23T18:44:46.301Z,73.00
2019-01-23T18:47:18.094Z,80.90
2019-01-23T18:49:47.041Z,73.45
2019-01-23T18:52:15.347Z,76.67
2019-01-23T18:54:43.214Z,73.33
2019-01-23T18:57:12.152Z,80.12
2019-01-23T18:59:39.477Z,74.85
2019-01-23T19:02:06.831Z,70.50
2019-01-23T19:04:34.121Z,73.12
2019-01-23T19:07:01.450Z,79.10
2019-01-23T19:09:28.755Z,81.82
2019-01-23T19:11:56.048Z,79.77
2019-01-23T19:14:24.584Z,82.92
2019-01-23T19:16:52.084Z,82.30
2019-01-23T19:19:19.377Z,70.55
2019-01-23T19:21:46.697Z,80.20
2019-01-23T19:24:14.002Z,80.07
2019-01-23T19:26:41.331Z,86.97
2019-01-23T19:29:08.636Z,87.80
2019-01-23T19:31:35.940Z,76.82
2019-01-23T19:34:03.264Z,78.30
2019-01-23T19:36:30.590Z,79.87
2019-01-23T19:38:57.877Z,82.05
2019-01-23T19:41:25.207Z,71.37
2019-01-23T19:43:52.502Z,78.17
2019-01-23T19:46:19.803Z,84.22
2019-01-23T19:48:47.199Z,84.50
2019-01-23T19:51:14.535Z,78.20
2019-01-23T19:53:41.841Z,82.12
2019-01-23T19:56:09.163Z,80.42
2019-01-23T19:58:36.522Z,81.57
2019-01-23T20:01:04.071Z,80.92
2019-01-23T20:03:31.369Z,85.42
2019-01-23T20:05:58.685Z,74.37
2019-01-23T20:08:25.984Z,80.20
2019-01-23T20:10:53.302Z,78.90
2019-01-23T20:13:20.607Z,84.50
2019-01-23T20:15:47.931Z,79.82
2019-01-23T20:18:15.217Z,88.42
2019-01-23T20:20:42.526Z,86.90
2019-01-23T20:23:09.842Z,80.28
2019-01-23T20:25:37.125Z,85.05
2019-01-23T20:28:04.421Z,76.77
2019-01-23T20:30:32.919Z,83.03
2019-01-23T20:33:00.209Z,70.08
2019-01-23T20:35:27.506Z,76.07
2019-01-23T20:37:54.826Z,69.58
2019-01-23T20:40:22.126Z,73.37
2019-01-23T20:42:49.595Z,78.67
2019-01-23T20:45:16.927Z,71.25
2019-01-23T20:47:44.230Z,72.20
2019-01-23T20:50:13.164Z,70.00
2019-01-23T20:52:40.479Z,71.02
2019-01-23T20:55:07.787Z,71.85
2019-01-23T20:57:35.077Z,77.53
2019-01-23T21:00:02.583Z,73.80
2019-01-23T21:02:29.884Z,71.87
2019-01-23T21:04:57.203Z,88.60
2019-01-23T21:07:24.516Z,78.92
2019-01-23T21:09:51.822Z,74.50
2019-01-23T21:12:19.145Z,79.75
2019-01-23T21:14:46.437Z,83.87
2019-01-23T21:17:13.737Z,70.97
2019-01-23T21:19:41.058Z,64.58
2019-01-23T21:22:08.358Z,68.05
2019-01-23T21:24:35.672Z,66.17
2019-01-23T21:27:02.965Z,71.67
2019-01-23T21:29:30.260Z,68.20
2019-01-23T21:31:57.599Z,73.78
2019-01-23T21:34:24.895Z,68.85
2019-01-23T21:36:52.190Z,74.55
2019-01-23T21:39:19.518Z,73.92
2019-01-23T21:41:46.837Z,65.00
2019-01-23T21:44:14.142Z,67.53
2019-01-23T21:46:41.428Z,73.62
2019-01-23T21:49:08.770Z,72.95
2019-01-23T21:51:36.068Z,66.92
2019-01-23T21:54:03.395Z,63.10
2019-01-23T21:56:30.685Z,71.25
2019-01-23T21:58:57.980Z,66.40
2019-01-23T22:01:25.313Z,65.55
2019-01-23T22:03:52.609Z,71.72
2019-01-23T22:06:19.906Z,67.65
2019-01-23T22:08:47.238Z,72.40
2019-01-23T22:11:14.533Z,68.87
2019-01-23T22:13:41.834Z,76.22
2019-01-23T22:16:09.167Z,76.85
2019-01-23T22:18:36.476Z,64.95
2019-01-23T22:21:03.793Z,72.08
2019-01-23T22:23:31.109Z,66.20
2019-01-23T22:25:58.450Z,67.32
2019-01-23T22:28:25.752Z,73.92
2019-01-23T22:30:53.044Z,72.92
2019-01-23T22:33:20.374Z,69.45
2019-01-23T22:35:47.674Z,81.78
2019-01-23T22:38:15.041Z,71.72
2019-01-23T22:40:42.357Z,72.08
2019-01-23T22:43:14.949Z,77.62
2019-01-23T22:45:38.623Z,61.92
2019-01-23T22:48:05.945Z,65.45
2019-01-23T22:50:33.226Z,72.62
2019-01-23T22:53:00.522Z,63.05
2019-01-23T22:55:27.851Z,75.45
2019-01-23T22:57:55.155Z,76.17
2019-01-23T23:00:34.926Z,66.55
2019-01-23T23:03:03.092Z,64.40
2019-01-23T23:05:30.932Z,72.37
2019-01-23T23:07:58.270Z,70.75
2019-01-23T23:10:25.566Z,70.95
2019-01-23T23:12:52.875Z,68.85
2019-01-23T23:15:20.198Z,64.25
2019-01-23T23:17:47.515Z,69.45
2019-01-23T23:20:14.850Z,66.97
2019-01-23T23:22:42.160Z,65.92
2019-01-23T23:25:09.665Z,67.70
2019-01-23T23:27:39.506Z,72.75
2019-01-23T23:30:10.607Z,68.78
2019-01-23T23:32:37.997Z,69.47
2019-01-23T23:35:05.933Z,66.57
2019-01-23T23:37:33.225Z,73.05
2019-01-23T23:40:00.550Z,68.33
2019-01-23T23:42:27.852Z,74.37
2019-01-23T23:44:55.149Z,78.72
2019-01-23T23:47:22.680Z,64.37
2019-01-23T23:49:50.067Z,71.55
2019-01-23T23:52:17.422Z,68.22
2019-01-23T23:54:44.714Z,69.27
2019-01-23T23:57:12.021Z,72.03
2019-01-23T23:59:39.336Z,74.27
